Nedrow, New York
Current Conditions -  °F | °C
As of 9:54 PM on Saturday 22 Nov 2014 (Local Time) from KSYR Reporting Station
Light Rain Light Rain  
Wind Chill: 39°   Ceiling: 2400
Heat Index: 45°   Visibility: 5mi
Dew Point: 38°   Wind: 12mph
Humidity: 76%   Direction: 220°SW
Pressure: 30.01"   Gusts: NA
Location:  42.98°N, 76.14°W
Report Text: KSYR 230254Z 22010KT 5SM -RA OVC024 07/03 A3001 RMK AO2 SLP161 P0000 60000 T00720033 58003 $
Loading
Personal Weather Stations






























Interactive Weather Map New forecast layout! Learn more

10-Day Weather Forecast

Advertisements
Track Severe Weather on mobile